Pleasant View, Tennessee
Current Conditions -  °F | °C
As of 8:35 PM on Friday 28 Nov 2014 (Local Time) from KM91 Reporting Station
Clear Clear  
Wind Chill: 37°   Ceiling: Unl
Heat Index: 43°   Visibility: 10mi
Dew Point: 25°   Wind: 12mph
Humidity: 49%   Direction: 190°S
Pressure: 30.11"   Gusts: NA
Location:  36.39°N, 87.04°W
Report Text: KM91 290235Z AUTO 19010KT 10SM CLR 06/M04 A3011 RMK
Loading
Personal Weather Stations






























Interactive Weather Map New forecast layout! Learn more

10-Day Weather Forecast

Advertisements
Track Severe Weather on mobile